createdAt,value
2018-11-10T00:00:32.000Z,99446
2018-11-10T00:02:02.000Z,99445
2018-11-10T00:03:47.000Z,99447
2018-11-10T00:05:02.000Z,99444
2018-11-10T00:07:02.000Z,99445
2018-11-10T00:09:02.000Z,99440
2018-11-10T00:10:02.000Z,99444
2018-11-10T00:12:02.000Z,99437
2018-11-10T00:13:02.000Z,99436
2018-11-10T00:15:02.000Z,99439
2018-11-10T00:17:02.000Z,99437
2018-11-10T00:19:02.000Z,99440
2018-11-10T00:20:02.000Z,99429
2018-11-10T00:22:02.000Z,99430
2018-11-10T00:23:02.000Z,99435
2018-11-10T00:25:02.000Z,99437
2018-11-10T00:27:02.000Z,99430
2018-11-10T00:28:02.000Z,99425
2018-11-10T00:30:02.000Z,99430
2018-11-10T00:31:02.000Z,99426
2018-11-10T00:32:47.000Z,99414
2018-11-10T00:34:02.000Z,99416
2018-11-10T00:35:47.000Z,99414
2018-11-10T00:37:02.000Z,99413
2018-11-10T00:39:02.000Z,99408
2018-11-10T00:41:02.000Z,99404
2018-11-10T00:42:02.000Z,99402
2018-11-10T00:44:02.000Z,99401
2018-11-10T00:46:02.000Z,99401
2018-11-10T00:48:02.000Z,99393
2018-11-10T00:50:02.000Z,99390
2018-11-10T00:52:02.000Z,99394
2018-11-10T00:53:02.000Z,99396
2018-11-10T00:54:02.000Z,99392
2018-11-10T00:56:02.000Z,99390
2018-11-10T00:57:02.000Z,99392
2018-11-10T00:58:46.000Z,99398
2018-11-10T01:00:02.000Z,99395
2018-11-10T01:02:02.000Z,99388
2018-11-10T01:04:02.000Z,99392
2018-11-10T01:05:02.000Z,99389
2018-11-10T01:07:02.000Z,99388
2018-11-10T01:09:02.000Z,99389
2018-11-10T01:10:02.000Z,99387
2018-11-10T01:12:02.000Z,99387
2018-11-10T01:13:02.000Z,99383
2018-11-10T01:15:02.000Z,99381
2018-11-10T01:17:02.000Z,99381
2018-11-10T01:19:02.000Z,99381
2018-11-10T01:20:02.000Z,99375
2018-11-10T01:22:02.000Z,99376
2018-11-10T01:23:02.000Z,99377
2018-11-10T01:24:02.000Z,99368
2018-11-10T01:26:02.000Z,99373
2018-11-10T01:27:02.000Z,99374
2018-11-10T01:29:02.000Z,99369
2018-11-10T01:30:46.000Z,99364
2018-11-10T01:32:02.000Z,99365
2018-11-10T01:34:02.000Z,99357
2018-11-10T01:36:02.000Z,99358
2018-11-10T01:38:02.000Z,99350
2018-11-10T01:40:02.000Z,99343
2018-11-10T01:41:46.000Z,99343
2018-11-10T01:43:02.000Z,99339
2018-11-10T01:45:02.000Z,99339
2018-11-10T01:46:46.000Z,99335
2018-11-10T01:48:02.000Z,99331
2018-11-10T01:50:02.000Z,99331
2018-11-10T01:51:02.000Z,99328
2018-11-10T01:52:02.000Z,99332
2018-11-10T01:54:02.000Z,99324
2018-11-10T01:55:02.000Z,99325
2018-11-10T01:57:02.000Z,99314
2018-11-10T01:59:02.000Z,99311
2018-11-10T02:01:02.000Z,99309
2018-11-10T02:02:47.000Z,99302
2018-11-10T02:04:02.000Z,99302
2018-11-10T02:06:02.000Z,99295
2018-11-10T02:07:47.000Z,99295
2018-11-10T02:09:02.000Z,99286
2018-11-10T02:11:02.000Z,99287
2018-11-10T02:13:02.000Z,99273
2018-11-10T02:15:02.000Z,99269
2018-11-10T02:16:02.000Z,99275
2018-11-10T02:18:02.000Z,99271
2018-11-10T02:20:02.000Z,99272
2018-11-10T02:21:02.000Z,99275
2018-11-10T02:22:02.000Z,99277
2018-11-10T02:24:02.000Z,99277
2018-11-10T02:26:02.000Z,99276
2018-11-10T02:27:02.000Z,99274
2018-11-10T02:28:02.000Z,99279
2018-11-10T02:29:47.000Z,99267
2018-11-10T02:31:02.000Z,99272
2018-11-10T02:33:02.000Z,99269
2018-11-10T02:34:31.000Z,99264
2018-11-10T02:36:02.000Z,99248
2018-11-10T02:38:02.000Z,99251
2018-11-10T02:40:02.000Z,99246
2018-11-10T02:42:02.000Z,99244
2018-11-10T02:43:02.000Z,99253
2018-11-10T02:44:02.000Z,99248
2018-11-10T02:46:02.000Z,99232
2018-11-10T02:48:02.000Z,99228
2018-11-10T02:50:02.000Z,99234
2018-11-10T02:51:02.000Z,99234
2018-11-10T02:53:02.000Z,99220
2018-11-10T02:55:02.000Z,99212
2018-11-10T02:56:02.000Z,99215
2018-11-10T02:58:02.000Z,99205
2018-11-10T02:59:31.000Z,99210
2018-11-10T03:01:02.000Z,99205
2018-11-10T03:03:02.000Z,99208
2018-11-10T03:04:02.000Z,99202
2018-11-10T03:06:02.000Z,99203
2018-11-10T03:08:02.000Z,99208
2018-11-10T03:10:02.000Z,99200
2018-11-10T03:11:47.000Z,99202
2018-11-10T03:13:02.000Z,99194
2018-11-10T03:14:02.000Z,99197
2018-11-10T03:15:02.000Z,99196
2018-11-10T03:16:02.000Z,99197
2018-11-10T03:18:02.000Z,99186
2018-11-10T03:19:47.000Z,99180
2018-11-10T03:21:02.000Z,99191
2018-11-10T03:22:02.000Z,99201
2018-11-10T03:23:02.000Z,99189
2018-11-10T03:25:02.000Z,99187
2018-11-10T03:27:02.000Z,99196
2018-11-10T03:29:02.000Z,99193
2018-11-10T03:31:02.000Z,99197
2018-11-10T03:33:02.000Z,99189
2018-11-10T03:35:02.000Z,99186
2018-11-10T03:36:02.000Z,99193
2018-11-10T03:38:02.000Z,99190
2018-11-10T03:39:02.000Z,99175
2018-11-10T03:40:02.000Z,99181
2018-11-10T03:41:02.000Z,99178
2018-11-10T03:43:02.000Z,99184
2018-11-10T03:45:02.000Z,99174
2018-11-10T03:47:02.000Z,99171
2018-11-10T03:48:02.000Z,99173
2018-11-10T03:50:02.000Z,99174
2018-11-10T03:52:02.000Z,99172
2018-11-10T03:54:02.000Z,99166
2018-11-10T03:55:02.000Z,99164
2018-11-10T03:57:02.000Z,99164
2018-11-10T03:59:02.000Z,99166
2018-11-10T04:01:02.000Z,99160
2018-11-10T04:02:02.000Z,99150
2018-11-10T04:03:47.000Z,99164
2018-11-10T04:05:02.000Z,99161
2018-11-10T04:07:02.000Z,99155
2018-11-10T04:09:01.000Z,99141
2018-11-10T04:10:01.000Z,99149
2018-11-10T04:12:01.000Z,99141
2018-11-10T04:13:01.000Z,99138
2018-11-10T04:15:01.000Z,99133
2018-11-10T04:16:46.000Z,99134
2018-11-10T04:18:01.000Z,99133
2018-11-10T04:19:01.000Z,99127
2018-11-10T04:21:01.000Z,99128
2018-11-10T04:23:01.000Z,99125
2018-11-10T04:25:01.000Z,99123
2018-11-10T04:26:01.000Z,99123
2018-11-10T04:28:01.000Z,99123
2018-11-10T04:29:01.000Z,99114
2018-11-10T04:31:01.000Z,99115
2018-11-10T04:32:46.000Z,99107
2018-11-10T04:34:01.000Z,99113
2018-11-10T04:35:01.000Z,99103
2018-11-10T04:37:01.000Z,99101
2018-11-10T04:39:01.000Z,99095
2018-11-10T04:40:01.000Z,99104
2018-11-10T04:42:01.000Z,99097
2018-11-10T04:43:01.000Z,99093
2018-11-10T04:45:01.000Z,99087
2018-11-10T04:46:46.000Z,99094
2018-11-10T04:48:01.000Z,99091
2018-11-10T04:49:01.000Z,99087
2018-11-10T04:50:46.000Z,99090
2018-11-10T04:52:01.000Z,99084
2018-11-10T04:53:01.000Z,99087
2018-11-10T04:55:01.000Z,99086
2018-11-10T04:56:01.000Z,99092
2018-11-10T04:58:01.000Z,99085
2018-11-10T04:59:01.000Z,99077
2018-11-10T05:01:01.000Z,99077
2018-11-10T05:03:01.000Z,99067
2018-11-10T05:05:01.000Z,99067
2018-11-10T05:07:01.000Z,99071
2018-11-10T05:09:01.000Z,99070
2018-11-10T05:11:01.000Z,99068
2018-11-10T05:12:01.000Z,99075
2018-11-10T05:13:46.000Z,99070
2018-11-10T05:15:02.000Z,99066
2018-11-10T05:17:02.000Z,99076
2018-11-10T05:19:02.000Z,99076
2018-11-10T05:20:02.000Z,99080
2018-11-10T05:21:02.000Z,99076
2018-11-10T05:23:02.000Z,99078
2018-11-10T05:25:02.000Z,99075
2018-11-10T05:27:02.000Z,99066
2018-11-10T05:28:02.000Z,99068
2018-11-10T05:29:02.000Z,99060
2018-11-10T05:31:02.000Z,99059
2018-11-10T05:32:31.000Z,99070
2018-11-10T05:34:02.000Z,99072
2018-11-10T05:35:02.000Z,99074
2018-11-10T05:36:02.000Z,99078
2018-11-10T05:38:02.000Z,99080
2018-11-10T05:40:02.000Z,99074
2018-11-10T05:41:02.000Z,99082
2018-11-10T05:43:02.000Z,99075
2018-11-10T05:44:02.000Z,99066
2018-11-10T05:45:02.000Z,99066
2018-11-10T05:47:02.000Z,99070
2018-11-10T05:49:02.000Z,99075
2018-11-10T05:51:02.000Z,99070
2018-11-10T05:53:02.000Z,99056
2018-11-10T05:54:02.000Z,99058
2018-11-10T05:55:46.000Z,99064
2018-11-10T05:57:02.000Z,99077
2018-11-10T05:58:46.000Z,99071
2018-11-10T06:00:02.000Z,99077
2018-11-10T06:02:02.000Z,99078
2018-11-10T06:03:02.000Z,99071
2018-11-10T06:05:02.000Z,99078
2018-11-10T06:07:02.000Z,99082
2018-11-10T06:09:02.000Z,99078
2018-11-10T06:10:46.000Z,99085
2018-11-10T06:12:02.000Z,99086
2018-11-10T06:13:02.000Z,99086
2018-11-10T06:14:31.000Z,99094
2018-11-10T06:16:02.000Z,99098
2018-11-10T06:18:02.000Z,99104
2018-11-10T06:19:02.000Z,99091
2018-11-10T06:20:02.000Z,99092
2018-11-10T06:22:02.000Z,99111
2018-11-10T06:23:02.000Z,99103
2018-11-10T06:25:02.000Z,99109
2018-11-10T06:27:02.000Z,99114
2018-11-10T06:29:02.000Z,99112
2018-11-10T06:30:46.000Z,99110
2018-11-10T06:32:02.000Z,99112
2018-11-10T06:34:02.000Z,99116
2018-11-10T06:35:02.000Z,99110
2018-11-10T06:36:02.000Z,99114
2018-11-10T06:37:02.000Z,99123
2018-11-10T06:39:02.000Z,99108
2018-11-10T06:41:02.000Z,99118
2018-11-10T06:42:02.000Z,99110
2018-11-10T06:43:46.000Z,99115
2018-11-10T06:45:02.000Z,99104
2018-11-10T06:46:02.000Z,99114
2018-11-10T06:48:02.000Z,99115
2018-11-10T06:49:02.000Z,99119
2018-11-10T06:51:02.000Z,99121
2018-11-10T06:52:46.000Z,99122
2018-11-10T06:54:02.000Z,99121
2018-11-10T06:56:02.000Z,99112
2018-11-10T06:57:02.000Z,99114
2018-11-10T06:58:02.000Z,99114
2018-11-10T06:59:02.000Z,99122
2018-11-10T07:01:02.000Z,99115
2018-11-10T07:03:02.000Z,99107
2018-11-10T07:04:46.000Z,99111
2018-11-10T07:06:02.000Z,99118
2018-11-10T07:08:02.000Z,99124
2018-11-10T07:10:02.000Z,99123
2018-11-10T07:11:02.000Z,99116
2018-11-10T07:12:46.000Z,99118
2018-11-10T07:14:02.000Z,99108
2018-11-10T07:16:02.000Z,99119
2018-11-10T07:17:02.000Z,99110
2018-11-10T07:18:02.000Z,99127
2018-11-10T07:20:02.000Z,99124
2018-11-10T07:22:02.000Z,99127
2018-11-10T07:24:02.000Z,99128
2018-11-10T07:26:02.000Z,99128
2018-11-10T07:27:47.000Z,99131
2018-11-10T07:29:02.000Z,99130
2018-11-10T07:30:02.000Z,99133
2018-11-10T07:32:02.000Z,99139
2018-11-10T07:33:02.000Z,99144
2018-11-10T07:34:47.000Z,99139
2018-11-10T07:36:02.000Z,99141
2018-11-10T07:38:02.000Z,99139
2018-11-10T07:40:02.000Z,99140
2018-11-10T07:41:02.000Z,99146
2018-11-10T07:42:02.000Z,99143
2018-11-10T07:44:02.000Z,99139
2018-11-10T07:45:47.000Z,99136
2018-11-10T07:47:02.000Z,99153
2018-11-10T07:48:02.000Z,99158
2018-11-10T07:50:02.000Z,99167
2018-11-10T07:51:02.000Z,99160
2018-11-10T07:53:02.000Z,99152
2018-11-10T07:55:02.000Z,99153
2018-11-10T07:57:02.000Z,99156
2018-11-10T07:58:02.000Z,99159
2018-11-10T07:59:02.000Z,99145
2018-11-10T08:00:02.000Z,99147
2018-11-10T08:01:47.000Z,99156
2018-11-10T08:02:47.000Z,99158
2018-11-10T08:04:02.000Z,99154
2018-11-10T08:05:47.000Z,99147
2018-11-10T08:07:02.000Z,99142
2018-11-10T08:08:02.000Z,99145
2018-11-10T08:09:47.000Z,99146
2018-11-10T08:11:02.000Z,99146
2018-11-10T08:13:02.000Z,99148
2018-11-10T08:15:02.000Z,99146
2018-11-10T08:16:02.000Z,99146
2018-11-10T08:17:47.000Z,99138
2018-11-10T08:19:02.000Z,99141
2018-11-10T08:21:02.000Z,99141
2018-11-10T08:23:02.000Z,99154
2018-11-10T08:24:47.000Z,99133
2018-11-10T08:26:02.000Z,99141
2018-11-10T08:27:02.000Z,99143
2018-11-10T08:29:02.000Z,99141
2018-11-10T08:31:02.000Z,99143
2018-11-10T08:32:02.000Z,99146
2018-11-10T08:34:02.000Z,99149
2018-11-10T08:35:02.000Z,99155
2018-11-10T08:37:02.000Z,99156
2018-11-10T08:39:02.000Z,99153
2018-11-10T08:40:02.000Z,99152
2018-11-10T08:41:02.000Z,99151
2018-11-10T08:43:02.000Z,99163
2018-11-10T08:44:02.000Z,99157
2018-11-10T08:45:02.000Z,99158
2018-11-10T08:47:02.000Z,99148
2018-11-10T08:49:02.000Z,99156
2018-11-10T08:51:02.000Z,99162
2018-11-10T08:52:02.000Z,99156
2018-11-10T08:54:02.000Z,99160
2018-11-10T08:55:02.000Z,99152
2018-11-10T08:57:02.000Z,99152
2018-11-10T08:58:02.000Z,99152
2018-11-10T08:59:02.000Z,99145
2018-11-10T09:01:02.000Z,99153
2018-11-10T09:02:02.000Z,99156
2018-11-10T09:03:47.000Z,99154
2018-11-10T09:05:02.000Z,99151
2018-11-10T09:07:02.000Z,99163
2018-11-10T09:08:02.000Z,99161
2018-11-10T09:09:02.000Z,99176
2018-11-10T09:11:02.000Z,99165
2018-11-10T09:13:02.000Z,99168
2018-11-10T09:14:02.000Z,99172
2018-11-10T09:15:47.000Z,99175
2018-11-10T09:17:02.000Z,99172
2018-11-10T09:19:02.000Z,99172
2018-11-10T09:21:02.000Z,99176
2018-11-10T09:22:02.000Z,99168
2018-11-10T09:24:02.000Z,99180
2018-11-10T09:25:02.000Z,99184
2018-11-10T09:26:31.000Z,99185
2018-11-10T09:28:01.000Z,99185
2018-11-10T09:30:01.000Z,99188
2018-11-10T09:31:01.000Z,99183
2018-11-10T09:33:01.000Z,99182
2018-11-10T09:35:01.000Z,99183
2018-11-10T09:36:01.000Z,99183
2018-11-10T09:38:01.000Z,99183
2018-11-10T09:40:01.000Z,99188
2018-11-10T09:41:46.000Z,99197
2018-11-10T09:43:01.000Z,99198
2018-11-10T09:45:01.000Z,99197
2018-11-10T09:46:01.000Z,99190
2018-11-10T09:47:46.000Z,99193
2018-11-10T09:49:01.000Z,99201
2018-11-10T09:51:01.000Z,99197
2018-11-10T09:52:01.000Z,99204
2018-11-10T09:54:01.000Z,99203
2018-11-10T09:56:01.000Z,99195
2018-11-10T09:57:01.000Z,99191
2018-11-10T09:59:01.000Z,99183
2018-11-10T10:00:01.000Z,99185
2018-11-10T10:01:46.000Z,99196
2018-11-10T10:03:01.000Z,99191
2018-11-10T10:05:01.000Z,99189
2018-11-10T10:07:01.000Z,99188
2018-11-10T10:09:01.000Z,99181
2018-11-10T10:11:01.000Z,99186
2018-11-10T10:13:01.000Z,99174
2018-11-10T10:15:01.000Z,99174
2018-11-10T10:17:01.000Z,99178
2018-11-10T10:18:01.000Z,99177
2018-11-10T10:19:01.000Z,99179
2018-11-10T10:21:01.000Z,99178
2018-11-10T10:23:01.000Z,99189
2018-11-10T10:25:01.000Z,99188
2018-11-10T10:27:01.000Z,99190
2018-11-10T10:28:01.000Z,99186
2018-11-10T10:29:46.000Z,99190
2018-11-10T10:32:02.000Z,99179
2018-11-10T10:34:02.000Z,99188
2018-11-10T10:35:02.000Z,99190
2018-11-10T10:36:02.000Z,99178
2018-11-10T10:38:02.000Z,99180
2018-11-10T10:40:02.000Z,99195
2018-11-10T10:42:02.000Z,99178
2018-11-10T10:44:02.000Z,99178
2018-11-10T10:46:02.000Z,99175
2018-11-10T10:48:02.000Z,99180
2018-11-10T10:49:02.000Z,99182
2018-11-10T10:51:02.000Z,99175
2018-11-10T10:53:02.000Z,99170
2018-11-10T10:54:32.000Z,99175
2018-11-10T10:56:02.000Z,99172
2018-11-10T10:58:02.000Z,99177
2018-11-10T10:59:02.000Z,99164
2018-11-10T11:00:02.000Z,99178
2018-11-10T11:02:02.000Z,99170
2018-11-10T11:04:02.000Z,99175
2018-11-10T11:05:02.000Z,99171
2018-11-10T11:06:47.000Z,99172
2018-11-10T11:08:02.000Z,99162
2018-11-10T11:10:02.000Z,99166
2018-11-10T11:11:02.000Z,99159
2018-11-10T11:13:02.000Z,99162
2018-11-10T11:15:02.000Z,99187
2018-11-10T11:17:02.000Z,99177
2018-11-10T11:18:02.000Z,99165
2018-11-10T11:20:02.000Z,99170
2018-11-10T11:22:02.000Z,99165
2018-11-10T11:24:02.000Z,99171
2018-11-10T11:26:02.000Z,99173
2018-11-10T11:27:47.000Z,99178
2018-11-10T11:29:02.000Z,99166
2018-11-10T11:31:02.000Z,99173
2018-11-10T11:32:32.000Z,99170
2018-11-10T11:34:02.000Z,99162
2018-11-10T11:36:02.000Z,99164
2018-11-10T11:37:02.000Z,99163
2018-11-10T11:39:02.000Z,99168
2018-11-10T11:40:02.000Z,99161
2018-11-10T11:42:02.000Z,99160
2018-11-10T11:44:02.000Z,99165
2018-11-10T11:46:02.000Z,99158
2018-11-10T11:47:02.000Z,99152
2018-11-10T11:49:02.000Z,99152
2018-11-10T11:51:02.000Z,99154
2018-11-10T11:53:02.000Z,99138
2018-11-10T11:55:02.000Z,99148
2018-11-10T11:56:47.000Z,99147
2018-11-10T11:58:02.000Z,99151
2018-11-10T12:00:02.000Z,99142
2018-11-10T12:02:02.000Z,99145
2018-11-10T12:04:02.000Z,99145
2018-11-10T12:05:02.000Z,99137
2018-11-10T12:07:02.000Z,99134
2018-11-10T12:08:02.000Z,99140
2018-11-10T12:09:02.000Z,99143
2018-11-10T12:10:02.000Z,99143
2018-11-10T12:12:02.000Z,99145
2018-11-10T12:14:02.000Z,99138
2018-11-10T12:15:02.000Z,99136
2018-11-10T12:17:02.000Z,99137
2018-11-10T12:18:47.000Z,99133
2018-11-10T12:20:02.000Z,99132
2018-11-10T12:22:02.000Z,99130
2018-11-10T12:24:02.000Z,99127
2018-11-10T12:25:02.000Z,99121
2018-11-10T12:27:02.000Z,99129
2018-11-10T12:28:02.000Z,99133
2018-11-10T12:30:02.000Z,99126
2018-11-10T12:31:02.000Z,99131
2018-11-10T12:33:02.000Z,99124
2018-11-10T12:35:02.000Z,99128
2018-11-10T12:36:02.000Z,99128
2018-11-10T12:38:01.000Z,99127
2018-11-10T12:39:01.000Z,99131
2018-11-10T12:41:01.000Z,99129
2018-11-10T12:42:01.000Z,99126
2018-11-10T12:43:01.000Z,99124
2018-11-10T12:45:01.000Z,99127
2018-11-10T12:46:46.000Z,99126
2018-11-10T12:48:01.000Z,99125
2018-11-10T12:50:01.000Z,99125
2018-11-10T12:51:01.000Z,99128
2018-11-10T12:53:01.000Z,99128
2018-11-10T12:55:01.000Z,99124
2018-11-10T12:56:01.000Z,99120
2018-11-10T12:57:01.000Z,99116
2018-11-10T12:59:01.000Z,99121
2018-11-10T13:00:46.000Z,99121
2018-11-10T13:02:01.000Z,99115
2018-11-10T13:03:01.000Z,99115
2018-11-10T13:04:01.000Z,99115
2018-11-10T13:05:46.000Z,99110
2018-11-10T13:07:01.000Z,99107
2018-11-10T13:09:01.000Z,99107
2018-11-10T13:11:01.000Z,99108
2018-11-10T13:13:01.000Z,99102
2018-11-10T13:15:01.000Z,99102
2018-11-10T13:17:01.000Z,99098
2018-11-10T13:19:01.000Z,99098
2018-11-10T13:21:01.000Z,99091
2018-11-10T13:22:46.000Z,99096
2018-11-10T13:24:01.000Z,99092
2018-11-10T13:25:01.000Z,99092
2018-11-10T13:26:46.000Z,99089
2018-11-10T13:28:01.000Z,99086
2018-11-10T13:30:01.000Z,99087
2018-11-10T13:31:01.000Z,99085
2018-11-10T13:32:46.000Z,99080
2018-11-10T13:34:01.000Z,99074
2018-11-10T13:35:01.000Z,99081
2018-11-10T13:37:01.000Z,99081
2018-11-10T13:38:01.000Z,99075
2018-11-10T13:40:01.000Z,99071
2018-11-10T13:41:02.000Z,99077
2018-11-10T13:43:02.000Z,99074
2018-11-10T13:44:02.000Z,99080
2018-11-10T13:46:02.000Z,99080
2018-11-10T13:48:02.000Z,99081
2018-11-10T13:49:02.000Z,99071
2018-11-10T13:51:02.000Z,99073
2018-11-10T13:53:02.000Z,99074
2018-11-10T13:54:02.000Z,99079
2018-11-10T13:56:02.000Z,99068
2018-11-10T13:58:02.000Z,99074
2018-11-10T14:00:02.000Z,99069
2018-11-10T14:02:02.000Z,99069
2018-11-10T14:04:02.000Z,99070
2018-11-10T14:06:02.000Z,99076
2018-11-10T14:08:02.000Z,99073
2018-11-10T14:09:02.000Z,99067
2018-11-10T14:11:02.000Z,99071
2018-11-10T14:13:02.000Z,99072
2018-11-10T14:15:02.000Z,99065
2018-11-10T14:16:47.000Z,99068
2018-11-10T14:18:02.000Z,99066
2018-11-10T14:20:02.000Z,99067
2018-11-10T14:21:02.000Z,99066
2018-11-10T14:23:02.000Z,99059
2018-11-10T14:24:02.000Z,99062
2018-11-10T14:26:02.000Z,99054
2018-11-10T14:28:02.000Z,99058
2018-11-10T14:29:32.000Z,99060
2018-11-10T14:31:02.000Z,99056
2018-11-10T14:33:02.000Z,99064
2018-11-10T14:34:02.000Z,99066
2018-11-10T14:36:02.000Z,99052
2018-11-10T14:38:02.000Z,99055
2018-11-10T14:40:02.000Z,99052
2018-11-10T14:41:02.000Z,99058
2018-11-10T14:42:02.000Z,99045
2018-11-10T14:44:02.000Z,99044
2018-11-10T14:46:01.000Z,99052
2018-11-10T14:47:01.000Z,99052
2018-11-10T14:48:46.000Z,99046
2018-11-10T14:49:46.000Z,99043
2018-11-10T14:51:01.000Z,99040
2018-11-10T14:52:01.000Z,99047
2018-11-10T14:54:01.000Z,99041
2018-11-10T14:55:01.000Z,99037
2018-11-10T14:57:01.000Z,99027
2018-11-10T14:58:46.000Z,99036
2018-11-10T15:00:01.000Z,99033
2018-11-10T15:02:01.000Z,99039
2018-11-10T15:04:01.000Z,99033
2018-11-10T15:05:46.000Z,99036
2018-11-10T15:07:01.000Z,99033
2018-11-10T15:08:01.000Z,99029
2018-11-10T15:10:01.000Z,99034
2018-11-10T15:12:01.000Z,99032
2018-11-10T15:14:01.000Z,99037
2018-11-10T15:15:01.000Z,99036
2018-11-10T15:17:01.000Z,99047
2018-11-10T15:19:01.000Z,99046
2018-11-10T15:21:01.000Z,99045
2018-11-10T15:23:01.000Z,99048
2018-11-10T15:25:01.000Z,99042
2018-11-10T15:26:01.000Z,99049
2018-11-10T15:28:01.000Z,99045
2018-11-10T15:30:01.000Z,99048
2018-11-10T15:32:01.000Z,99035
2018-11-10T15:33:01.000Z,99042
2018-11-10T15:35:01.000Z,99040
2018-11-10T15:37:01.000Z,99048
2018-11-10T15:39:01.000Z,99046
2018-11-10T15:40:01.000Z,99043
2018-11-10T15:41:01.000Z,99045
2018-11-10T15:42:01.000Z,99034
2018-11-10T15:44:01.000Z,99027
2018-11-10T15:45:46.000Z,99031
2018-11-10T15:47:01.000Z,99026
2018-11-10T15:48:01.000Z,99028
2018-11-10T15:50:02.000Z,99040
2018-11-10T15:51:46.000Z,99037
2018-11-10T15:53:02.000Z,99043
2018-11-10T15:55:02.000Z,99037
2018-11-10T15:56:02.000Z,99037
2018-11-10T15:58:02.000Z,99035
2018-11-10T15:59:02.000Z,99031
2018-11-10T16:00:46.000Z,99039
2018-11-10T16:02:02.000Z,99041
2018-11-10T16:04:02.000Z,99037
2018-11-10T16:06:02.000Z,99038
2018-11-10T16:07:02.000Z,99032
2018-11-10T16:08:46.000Z,99038
2018-11-10T16:10:02.000Z,99036
2018-11-10T16:12:02.000Z,99038
2018-11-10T16:13:02.000Z,99045
2018-11-10T16:15:02.000Z,99043
2018-11-10T16:16:02.000Z,99038
2018-11-10T16:17:46.000Z,99039
2018-11-10T16:19:02.000Z,99044
2018-11-10T16:20:02.000Z,99047
2018-11-10T16:22:02.000Z,99046
2018-11-10T16:24:02.000Z,99044
2018-11-10T16:25:02.000Z,99055
2018-11-10T16:27:02.000Z,99053
2018-11-10T16:29:02.000Z,99053
2018-11-10T16:31:02.000Z,99042
2018-11-10T16:33:02.000Z,99050
2018-11-10T16:35:02.000Z,99050
2018-11-10T16:36:02.000Z,99049
2018-11-10T16:38:02.000Z,99050
2018-11-10T16:39:02.000Z,99045
2018-11-10T16:41:02.000Z,99049
2018-11-10T16:43:02.000Z,99044
2018-11-10T16:45:02.000Z,99051
2018-11-10T16:47:02.000Z,99050
2018-11-10T16:48:46.000Z,99048
2018-11-10T16:50:02.000Z,99044
2018-11-10T16:52:02.000Z,99054
2018-11-10T16:53:02.000Z,99054
2018-11-10T16:55:02.000Z,99053
2018-11-10T16:57:02.000Z,99055
2018-11-10T16:59:02.000Z,99064
2018-11-10T17:01:02.000Z,99061
2018-11-10T17:03:02.000Z,99066
2018-11-10T17:04:47.000Z,99060
2018-11-10T17:06:02.000Z,99065
2018-11-10T17:08:02.000Z,99067
2018-11-10T17:10:02.000Z,99064
2018-11-10T17:12:02.000Z,99057
2018-11-10T17:13:47.000Z,99062
2018-11-10T17:15:02.000Z,99056
2018-11-10T17:16:02.000Z,99041
2018-11-10T17:17:02.000Z,99044
2018-11-10T17:19:02.000Z,99042
2018-11-10T17:21:02.000Z,99048
2018-11-10T17:23:02.000Z,99037
2018-11-10T17:24:02.000Z,99051
2018-11-10T17:26:02.000Z,99053
2018-11-10T17:28:02.000Z,99054
2018-11-10T17:30:02.000Z,99056
2018-11-10T17:31:47.000Z,99053
2018-11-10T17:32:47.000Z,99053
2018-11-10T17:34:02.000Z,99049
2018-11-10T17:35:47.000Z,99060
2018-11-10T17:37:02.000Z,99058
2018-11-10T17:39:02.000Z,99061
2018-11-10T17:40:32.000Z,99060
2018-11-10T17:42:02.000Z,99061
2018-11-10T17:43:47.000Z,99060
2018-11-10T17:45:02.000Z,99056
2018-11-10T17:47:02.000Z,99060
2018-11-10T17:48:02.000Z,99059
2018-11-10T17:49:02.000Z,99067
2018-11-10T17:51:02.000Z,99066
2018-11-10T17:53:02.000Z,99070
2018-11-10T17:55:02.000Z,99076
2018-11-10T17:57:02.000Z,99070
2018-11-10T17:58:02.000Z,99069
2018-11-10T17:59:02.000Z,99068
2018-11-10T18:00:47.000Z,99065
2018-11-10T18:02:02.000Z,99071
2018-11-10T18:04:02.000Z,99068
2018-11-10T18:05:02.000Z,99068
2018-11-10T18:07:02.000Z,99082
2018-11-10T18:09:02.000Z,99083
2018-11-10T18:11:02.000Z,99077
2018-11-10T18:12:02.000Z,99074
2018-11-10T18:14:02.000Z,99081
2018-11-10T18:16:02.000Z,99087
2018-11-10T18:17:02.000Z,99087
2018-11-10T18:18:47.000Z,99082
2018-11-10T18:20:02.000Z,99081
2018-11-10T18:21:02.000Z,99083
2018-11-10T18:23:02.000Z,99087
2018-11-10T18:25:02.000Z,99080
2018-11-10T18:27:02.000Z,99075
2018-11-10T18:28:02.000Z,99080
2018-11-10T18:29:02.000Z,99085
2018-11-10T18:31:02.000Z,99075
2018-11-10T18:32:47.000Z,99076
2018-11-10T18:34:02.000Z,99067
2018-11-10T18:35:02.000Z,99075
2018-11-10T18:36:02.000Z,99073
2018-11-10T18:38:02.000Z,99076
2018-11-10T18:39:47.000Z,99070
2018-11-10T18:41:02.000Z,99072
2018-11-10T18:42:02.000Z,99075
2018-11-10T18:44:02.000Z,99072
2018-11-10T18:46:02.000Z,99063
2018-11-10T18:47:02.000Z,99067
2018-11-10T18:48:02.000Z,99064
2018-11-10T18:50:02.000Z,99064
2018-11-10T18:52:02.000Z,99065
2018-11-10T18:54:02.000Z,99067
2018-11-10T18:55:02.000Z,99062
2018-11-10T18:56:02.000Z,99059
2018-11-10T18:58:02.000Z,99062
2018-11-10T19:00:02.000Z,99063
2018-11-10T19:02:02.000Z,99068
2018-11-10T19:04:02.000Z,99072
2018-11-10T19:06:02.000Z,99075
2018-11-10T19:08:02.000Z,99085
2018-11-10T19:09:02.000Z,99083
2018-11-10T19:10:02.000Z,99080
2018-11-10T19:12:02.000Z,99090
2018-11-10T19:14:02.000Z,99090
2018-11-10T19:15:02.000Z,99094
2018-11-10T19:17:02.000Z,99091
2018-11-10T19:19:02.000Z,99093
2018-11-10T19:21:02.000Z,99098
2018-11-10T19:22:02.000Z,99094
2018-11-10T19:24:02.000Z,99097
2018-11-10T19:26:02.000Z,99101
2018-11-10T19:28:02.000Z,99107
2018-11-10T19:30:02.000Z,99102
2018-11-10T19:31:02.000Z,99103
2018-11-10T19:32:02.000Z,99103
2018-11-10T19:33:47.000Z,99111
2018-11-10T19:35:02.000Z,99112
2018-11-10T19:37:02.000Z,99107
2018-11-10T19:39:02.000Z,99109
2018-11-10T19:40:02.000Z,99115
2018-11-10T19:42:02.000Z,99115
2018-11-10T19:43:02.000Z,99119
2018-11-10T19:45:02.000Z,99113
2018-11-10T19:46:02.000Z,99112
2018-11-10T19:47:47.000Z,99111
2018-11-10T19:49:02.000Z,99106
2018-11-10T19:50:47.000Z,99117
2018-11-10T19:52:02.000Z,99119
2018-11-10T19:54:02.000Z,99115
2018-11-10T19:55:02.000Z,99114
2018-11-10T19:56:47.000Z,99111
2018-11-10T19:58:02.000Z,99109
2018-11-10T20:00:02.000Z,99120
2018-11-10T20:01:02.000Z,99121
2018-11-10T20:03:02.000Z,99122
2018-11-10T20:05:02.000Z,99114
2018-11-10T20:07:02.000Z,99120
2018-11-10T20:08:47.000Z,99117
2018-11-10T20:10:02.000Z,99121
2018-11-10T20:12:02.000Z,99114
2018-11-10T20:13:02.000Z,99114
2018-11-10T20:15:02.000Z,99111
2018-11-10T20:16:02.000Z,99107
2018-11-10T20:18:02.000Z,99116
2018-11-10T20:19:02.000Z,99115
2018-11-10T20:21:02.000Z,99115
2018-11-10T20:22:02.000Z,99109
2018-11-10T20:23:47.000Z,99112
2018-11-10T20:25:02.000Z,99107
2018-11-10T20:27:02.000Z,99105
2018-11-10T20:28:02.000Z,99105
2018-11-10T20:30:02.000Z,99107
2018-11-10T20:32:02.000Z,99112
2018-11-10T20:33:02.000Z,99110
2018-11-10T20:34:47.000Z,99111
2018-11-10T20:36:02.000Z,99110
2018-11-10T20:37:32.000Z,99116